»·PEaware :: UAL488 KRNO-KSFO

UAL488 :: KRNO-KSFO

FLIGHT INFORMATION

Flight Status: Arrived
Operator:
United Airlines
More flights by this operator :: More flights under this callsign
Pilot: Ulrik N. (13596)
Aircraft: AIRBUS A320
(A320)
More flights by this aircraft type
Origin: KRNO Reno/Tahoe Intl
United States
Destination: KSFO San Francisco Intl
United States
More flights between these airports :: More routes between these airports
Route: +PVINE3 CRDDZ LEGGS BDEGA2
File this flight plan on PilotEdge
Remarks:
Altitude:
(Current/Filed)
26,000ft
Speed:
(Current/Filed)
430kts
Departed: 01-May-18 09:56 PM
Arrived: 01-May-18 10:40 PM
Distance/Time
Traveled:
167nm/0:44
Distance/Time
To Go:
Arrived

Flight Plot

Page will automatically refresh every two minutes.


Map Options




Map Legend


Flown Route
Filed Route
Departure Airport
Arrival Airport
Navaid (VOR, NDB)
Fix

Horizontal Profiles

Position Reports

Time Latitude Longitude Heading Altitude Ground
Speed
01-May-18 21:40 39.506598 -119.773143 342 4418ft 0kts
01-May-18 21:41 39.506598 -119.773143 342 4418ft 0kts
01-May-18 21:42 39.506598 -119.773143 342 4418ft 0kts
01-May-18 21:43 39.506598 -119.773143 342 4418ft 0kts
01-May-18 21:44 39.506598 -119.773142 342 4418ft 0kts
01-May-18 21:45 39.506598 -119.773142 342 4418ft 0kts
01-May-18 21:46 39.506338 -119.773039 342 4418ft 2kts
01-May-18 21:47 39.505906 -119.773232 87 4418ft 0kts
01-May-18 21:48 39.505909 -119.773326 90 4418ft 0kts
01-May-18 21:49 39.505909 -119.772996 89 4418ft 7kts
01-May-18 21:50 39.504032 -119.771503 179 4418ft 13kts
01-May-18 21:51 39.498240 -119.771516 179 4418ft 23kts
01-May-18 21:52 39.491975 -119.771538 179 4418ft 21kts
01-May-18 21:53 39.486494 -119.771539 179 4418ft 18kts
01-May-18 21:54 39.483766 -119.770576 90 4418ft 0kts
01-May-18 21:54 39.483766 -119.769991 89 4418ft 11kts
01-May-18 21:56 39.509732 -119.769424 359 4873ft 189kts
01-May-18 21:57 39.564205 -119.767952 2 7704ft 226kts
01-May-18 21:58 39.619121 -119.818894 299 9936ft 292kts
01-May-18 21:58 39.652233 -119.902621 299 11350ft 343kts
01-May-18 21:59 39.648613 -120.030065 251 13193ft 387kts
01-May-18 22:00 39.609937 -120.163021 252 15305ft 403kts
01-May-18 22:01 39.569868 -120.301693 252 17226ft 418kts
01-May-18 22:02 39.528369 -120.444679 253 18964ft 431kts
01-May-18 22:03 39.485477 -120.591652 253 20523ft 444kts
01-May-18 22:04 39.441292 -120.742427 253 21944ft 456kts
01-May-18 22:05 39.395545 -120.897515 254 23250ft 468kts
01-May-18 22:06 39.348520 -121.055984 254 24433ft 479kts
01-May-18 22:07 39.268867 -121.200458 235 25372ft 509kts
01-May-18 22:08 39.176832 -121.341163 235 25903ft 519kts
01-May-18 22:09 39.083440 -121.483614 235 25865ft 521kts
01-May-18 22:10 38.990129 -121.625334 235 25877ft 521kts
01-May-18 22:11 38.898266 -121.764244 235 25866ft 520kts
01-May-18 22:12 38.809235 -121.898305 236 25874ft 517kts
01-May-18 22:13 38.715933 -122.038209 236 25876ft 517kts
01-May-18 22:14 38.622344 -122.177926 236 25896ft 518kts
01-May-18 22:15 38.528768 -122.316997 236 25944ft 519kts
01-May-18 22:16 38.435852 -122.454414 236 25532ft 494kts
01-May-18 22:17 38.350543 -122.580992 236 23811ft 445kts
01-May-18 22:18 38.274762 -122.693103 235 21803ft 397kts
01-May-18 22:19 38.179407 -122.755875 166 19841ft 420kts
01-May-18 22:20 38.068948 -122.722578 164 18163ft 403kts
01-May-18 22:21 37.962093 -122.691336 164 16531ft 386kts
01-May-18 22:22 37.868513 -122.640800 136 14874ft 361kts
01-May-18 22:23 37.796432 -122.564031 137 12617ft 323kts
01-May-18 22:24 37.730245 -122.493979 138 11051ft 303kts
01-May-18 22:25 37.666065 -122.425728 138 10689ft 299kts
01-May-18 22:26 37.600672 -122.361839 151 9169ft 297kts
01-May-18 22:27 37.527745 -122.317258 154 7787ft 291kts
01-May-18 22:28 37.462318 -122.262726 117 6451ft 284kts
01-May-18 22:29 37.430511 -122.175510 114 6017ft 254kts
01-May-18 22:30 37.404858 -122.103920 114 5993ft 216kts
01-May-18 22:31 37.429619 -122.049226 23 5817ft 200kts
01-May-18 22:32 37.478266 -122.060564 323 4143ft 192kts
01-May-18 22:33 37.508556 -122.112032 297 3996ft 183kts
01-May-18 22:34 37.531593 -122.167093 296 3443ft 171kts
01-May-18 22:35 37.552778 -122.217733 295 2467ft 157kts
01-May-18 22:36 37.573823 -122.267986 294 1646ft 147kts
01-May-18 22:37 37.591133 -122.309351 293 907ft 130kts
01-May-18 22:38 37.607864 -122.349363 293 205ft 129kts
01-May-18 22:39 37.618973 -122.377351 274 21ft 27kts
01-May-18 22:40 37.618937 -122.380077 280 21ft 15kts
01-May-18 22:41 37.620372 -122.384692 167 21ft 3kts
01-May-18 22:42 37.619810 -122.384508 162 21ft 0kts
01-May-18 22:43 37.619810 -122.384509 162 21ft 0kts
01-May-18 22:44 37.619810 -122.384509 162 21ft 0kts
01-May-18 22:45 37.619810 -122.384508 162 21ft 0kts
01-May-18 22:46 37.619810 -122.384509 162 21ft 0kts

Navigation Log

Ident Type
1. KRNO Airport
2. PVINE Fix
3. CRDDZ Fix
4. KSFO Airport